sensor_id;sensor_type;location;lat;lon;timestamp;temperature;humidity
24860;DHT22;12936;52.006;4.350;2023-05-14T00:00:16;16.10;99.90
24860;DHT22;12936;52.006;4.350;2023-05-14T00:02:44;16.10;99.90
24860;DHT22;12936;52.006;4.350;2023-05-14T00:05:13;16.00;99.90
24860;DHT22;12936;52.006;4.350;2023-05-14T00:07:44;16.00;99.90
24860;DHT22;12936;52.006;4.350;2023-05-14T00:10:13;16.10;99.90
24860;DHT22;12936;52.006;4.350;2023-05-14T00:12:47;16.00;99.90
24860;DHT22;12936;52.006;4.350;2023-05-14T00:15:17;16.00;99.90
24860;DHT22;12936;52.006;4.350;2023-05-14T00:17:45;16.00;99.90
24860;DHT22;12936;52.006;4.350;2023-05-14T00:20:13;16.00;99.90
24860;DHT22;12936;52.006;4.350;2023-05-14T00:22:41;16.00;99.90
24860;DHT22;12936;52.006;4.350;2023-05-14T00:25:10;16.00;99.90
24860;DHT22;12936;52.006;4.350;2023-05-14T00:27:39;15.90;99.90
24860;DHT22;12936;52.006;4.350;2023-05-14T00:30:11;15.90;99.90
24860;DHT22;12936;52.006;4.350;2023-05-14T00:32:41;15.90;99.90
24860;DHT22;12936;52.006;4.350;2023-05-14T00:35:10;15.90;99.90
24860;DHT22;12936;52.006;4.350;2023-05-14T00:37:39;15.90;99.90
24860;DHT22;12936;52.006;4.350;2023-05-14T00:40:08;15.80;99.90
24860;DHT22;12936;52.006;4.350;2023-05-14T00:42:39;15.80;99.90
24860;DHT22;12936;52.006;4.350;2023-05-14T00:45:08;15.80;99.90
24860;DHT22;12936;52.006;4.350;2023-05-14T00:47:37;15.80;99.90
24860;DHT22;12936;52.006;4.350;2023-05-14T00:50:06;15.80;99.90
24860;DHT22;12936;52.006;4.350;2023-05-14T00:52:39;15.80;99.90
24860;DHT22;12936;52.006;4.350;2023-05-14T00:55:09;15.70;99.90
24860;DHT22;12936;52.006;4.350;2023-05-14T00:57:42;15.70;99.90
24860;DHT22;12936;52.006;4.350;2023-05-14T01:00:11;15.70;99.90
24860;DHT22;12936;52.006;4.350;2023-05-14T01:02:41;15.70;99.90
24860;DHT22;12936;52.006;4.350;2023-05-14T01:05:13;15.70;99.90
24860;DHT22;12936;52.006;4.350;2023-05-14T01:07:48;15.70;99.90
24860;DHT22;12936;52.006;4.350;2023-05-14T01:10:26;15.70;99.90
24860;DHT22;12936;52.006;4.350;2023-05-14T01:13:01;15.70;99.90
24860;DHT22;12936;52.006;4.350;2023-05-14T01:15:31;15.60;99.90
24860;DHT22;12936;52.006;4.350;2023-05-14T01:18:05;15.70;99.90
24860;DHT22;12936;52.006;4.350;2023-05-14T01:20:35;15.60;99.90
24860;DHT22;12936;52.006;4.350;2023-05-14T01:23:07;15.70;99.90
24860;DHT22;12936;52.006;4.350;2023-05-14T01:25:36;15.70;99.90
24860;DHT22;12936;52.006;4.350;2023-05-14T01:28:08;15.60;99.90
24860;DHT22;12936;52.006;4.350;2023-05-14T01:30:41;15.60;99.90
24860;DHT22;12936;52.006;4.350;2023-05-14T01:33:13;15.50;99.90
24860;DHT22;12936;52.006;4.350;2023-05-14T01:35:44;15.50;99.90
24860;DHT22;12936;52.006;4.350;2023-05-14T01:38:17;15.50;99.90
24860;DHT22;12936;52.006;4.350;2023-05-14T01:40:48;15.50;99.90
24860;DHT22;12936;52.006;4.350;2023-05-14T01:43:18;15.50;99.90
24860;DHT22;12936;52.006;4.350;2023-05-14T01:45:47;15.50;99.90
24860;DHT22;12936;52.006;4.350;2023-05-14T01:48:16;15.50;99.90
24860;DHT22;12936;52.006;4.350;2023-05-14T01:50:45;15.50;99.90
24860;DHT22;12936;52.006;4.350;2023-05-14T01:53:17;15.50;99.90
24860;DHT22;12936;52.006;4.350;2023-05-14T01:55:45;15.50;99.90
24860;DHT22;12936;52.006;4.350;2023-05-14T01:58:13;15.50;99.90
24860;DHT22;12936;52.006;4.350;2023-05-14T02:00:41;15.50;99.90
24860;DHT22;12936;52.006;4.350;2023-05-14T02:03:10;15.40;99.90
24860;DHT22;12936;52.006;4.350;2023-05-14T02:05:39;15.40;99.90
24860;DHT22;12936;52.006;4.350;2023-05-14T02:08:08;15.40;99.90
24860;DHT22;12936;52.006;4.350;2023-05-14T02:11:03;15.40;99.90
24860;DHT22;12936;52.006;4.350;2023-05-14T02:13:32;15.40;99.90
24860;DHT22;12936;52.006;4.350;2023-05-14T02:16:00;15.40;99.90
24860;DHT22;12936;52.006;4.350;2023-05-14T02:18:30;15.40;99.90
24860;DHT22;12936;52.006;4.350;2023-05-14T02:20:59;15.40;99.90
24860;DHT22;12936;52.006;4.350;2023-05-14T02:23:27;15.40;99.90
24860;DHT22;12936;52.006;4.350;2023-05-14T02:26:08;15.30;99.90
24860;DHT22;12936;52.006;4.350;2023-05-14T02:28:36;15.30;99.90
24860;DHT22;12936;52.006;4.350;2023-05-14T02:31:05;15.30;99.90
24860;DHT22;12936;52.006;4.350;2023-05-14T02:33:33;15.30;99.90
24860;DHT22;12936;52.006;4.350;2023-05-14T02:36:02;15.20;99.90
24860;DHT22;12936;52.006;4.350;2023-05-14T02:38:30;15.20;99.90
24860;DHT22;12936;52.006;4.350;2023-05-14T02:41:00;15.20;99.90
24860;DHT22;12936;52.006;4.350;2023-05-14T02:43:32;15.20;99.90
24860;DHT22;12936;52.006;4.350;2023-05-14T02:46:00;15.20;99.90
24860;DHT22;12936;52.006;4.350;2023-05-14T02:48:28;15.20;99.90
24860;DHT22;12936;52.006;4.350;2023-05-14T02:50:59;15.20;99.90
24860;DHT22;12936;52.006;4.350;2023-05-14T02:53:28;15.20;99.90
24860;DHT22;12936;52.006;4.350;2023-05-14T02:55:56;15.20;99.90
24860;DHT22;12936;52.006;4.350;2023-05-14T02:58:24;15.20;99.90
24860;DHT22;12936;52.006;4.350;2023-05-14T03:00:55;15.10;99.90
24860;DHT22;12936;52.006;4.350;2023-05-14T03:03:24;15.10;99.90
24860;DHT22;12936;52.006;4.350;2023-05-14T03:05:53;15.10;99.90
24860;DHT22;12936;52.006;4.350;2023-05-14T03:08:22;15.10;99.90
24860;DHT22;12936;52.006;4.350;2023-05-14T03:10:50;15.00;99.90
24860;DHT22;12936;52.006;4.350;2023-05-14T03:13:18;15.10;99.90
24860;DHT22;12936;52.006;4.350;2023-05-14T03:15:47;15.10;99.90
24860;DHT22;12936;52.006;4.350;2023-05-14T03:18:37;15.00;99.90
24860;DHT22;12936;52.006;4.350;2023-05-14T03:21:05;15.00;99.90
24860;DHT22;12936;52.006;4.350;2023-05-14T03:23:34;15.00;99.90
24860;DHT22;12936;52.006;4.350;2023-05-14T03:26:02;15.00;99.90
24860;DHT22;12936;52.006;4.350;2023-05-14T03:28:33;15.00;99.90
24860;DHT22;12936;52.006;4.350;2023-05-14T03:31:02;15.00;99.90
24860;DHT22;12936;52.006;4.350;2023-05-14T03:33:31;14.90;99.90
24860;DHT22;12936;52.006;4.350;2023-05-14T03:36:01;14.90;99.90
24860;DHT22;12936;52.006;4.350;2023-05-14T03:38:29;15.00;99.90
24860;DHT22;12936;52.006;4.350;2023-05-14T03:40:57;14.90;99.90
24860;DHT22;12936;52.006;4.350;2023-05-14T03:43:25;15.00;99.90
24860;DHT22;12936;52.006;4.350;2023-05-14T03:45:54;14.90;99.90
24860;DHT22;12936;52.006;4.350;2023-05-14T03:48:22;15.00;99.90
24860;DHT22;12936;52.006;4.350;2023-05-14T03:50:53;14.90;99.90
24860;DHT22;12936;52.006;4.350;2023-05-14T03:53:22;15.00;99.90
24860;DHT22;12936;52.006;4.350;2023-05-14T03:55:51;14.90;99.90
24860;DHT22;12936;52.006;4.350;2023-05-14T03:58:20;14.90;99.90
24860;DHT22;12936;52.006;4.350;2023-05-14T04:00:49;14.90;99.90
24860;DHT22;12936;52.006;4.350;2023-05-14T04:03:18;14.90;99.90
24860;DHT22;12936;52.006;4.350;2023-05-14T04:05:50;14.90;99.90
24860;DHT22;12936;52.006;4.350;2023-05-14T04:08:18;14.90;99.90
24860;DHT22;12936;52.006;4.350;2023-05-14T04:10:48;14.90;99.90
24860;DHT22;12936;52.006;4.350;2023-05-14T04:13:17;14.90;99.90
24860;DHT22;12936;52.006;4.350;2023-05-14T04:15:46;14.90;99.90
24860;DHT22;12936;52.006;4.350;2023-05-14T04:18:15;14.90;99.90
24860;DHT22;12936;52.006;4.350;2023-05-14T04:20:43;14.90;99.90
24860;DHT22;12936;52.006;4.350;2023-05-14T04:23:12;14.90;99.90
24860;DHT22;12936;52.006;4.350;2023-05-14T04:25:42;14.90;99.90
24860;DHT22;12936;52.006;4.350;2023-05-14T04:28:11;14.90;99.90
24860;DHT22;12936;52.006;4.350;2023-05-14T04:30:42;14.90;99.90
24860;DHT22;12936;52.006;4.350;2023-05-14T04:33:11;14.90;99.90
24860;DHT22;12936;52.006;4.350;2023-05-14T04:35:39;14.80;99.90
24860;DHT22;12936;52.006;4.350;2023-05-14T04:38:08;14.90;99.90
24860;DHT22;12936;52.006;4.350;2023-05-14T04:40:37;14.80;99.90
24860;DHT22;12936;52.006;4.350;2023-05-14T04:43:05;14.80;99.90
24860;DHT22;12936;52.006;4.350;2023-05-14T04:45:35;14.80;99.90
24860;DHT22;12936;52.006;4.350;2023-05-14T04:48:03;14.80;99.90
24860;DHT22;12936;52.006;4.350;2023-05-14T04:50:34;14.80;99.90
24860;DHT22;12936;52.006;4.350;2023-05-14T04:53:02;14.80;99.90
24860;DHT22;12936;52.006;4.350;2023-05-14T04:55:30;14.80;99.90
24860;DHT22;12936;52.006;4.350;2023-05-14T04:58:01;14.80;99.90
24860;DHT22;12936;52.006;4.350;2023-05-14T05:00:29;14.80;99.90
24860;DHT22;12936;52.006;4.350;2023-05-14T05:03:00;14.80;99.90
24860;DHT22;12936;52.006;4.350;2023-05-14T05:05:29;14.80;99.90
24860;DHT22;12936;52.006;4.350;2023-05-14T05:07:57;14.80;99.90
24860;DHT22;12936;52.006;4.350;2023-05-14T05:10:27;14.80;99.90
24860;DHT22;12936;52.006;4.350;2023-05-14T05:12:56;14.80;99.90
24860;DHT22;12936;52.006;4.350;2023-05-14T05:15:24;14.80;99.90
24860;DHT22;12936;52.006;4.350;2023-05-14T05:17:54;14.80;99.90
24860;DHT22;12936;52.006;4.350;2023-05-14T05:20:23;14.80;99.90
24860;DHT22;12936;52.006;4.350;2023-05-14T05:22:53;14.80;99.90
24860;DHT22;12936;52.006;4.350;2023-05-14T05:25:21;14.80;99.90
24860;DHT22;12936;52.006;4.350;2023-05-14T05:27:50;14.70;99.90
24860;DHT22;12936;52.006;4.350;2023-05-14T05:30:18;14.70;99.90
24860;DHT22;12936;52.006;4.350;2023-05-14T05:32:46;14.70;99.90
24860;DHT22;12936;52.006;4.350;2023-05-14T05:35:15;14.70;99.90
24860;DHT22;12936;52.006;4.350;2023-05-14T05:37:44;14.70;99.90
24860;DHT22;12936;52.006;4.350;2023-05-14T05:40:13;14.70;99.90
24860;DHT22;12936;52.006;4.350;2023-05-14T05:42:41;14.70;99.90
24860;DHT22;12936;52.006;4.350;2023-05-14T05:45:10;14.70;99.90
24860;DHT22;12936;52.006;4.350;2023-05-14T05:47:38;14.60;99.90
24860;DHT22;12936;52.006;4.350;2023-05-14T05:50:07;14.60;99.90
24860;DHT22;12936;52.006;4.350;2023-05-14T05:52:36;14.60;99.90
24860;DHT22;12936;52.006;4.350;2023-05-14T05:55:06;14.60;99.90
24860;DHT22;12936;52.006;4.350;2023-05-14T05:57:34;14.60;99.90
24860;DHT22;12936;52.006;4.350;2023-05-14T06:00:02;14.60;99.90
24860;DHT22;12936;52.006;4.350;2023-05-14T06:02:39;14.60;99.90
24860;DHT22;12936;52.006;4.350;2023-05-14T06:05:08;14.60;99.90
24860;DHT22;12936;52.006;4.350;2023-05-14T06:07:37;14.50;99.90
24860;DHT22;12936;52.006;4.350;2023-05-14T06:10:07;14.60;99.90
24860;DHT22;12936;52.006;4.350;2023-05-14T06:12:35;14.60;99.90
24860;DHT22;12936;52.006;4.350;2023-05-14T06:15:04;14.60;99.90
24860;DHT22;12936;52.006;4.350;2023-05-14T06:17:33;14.60;99.90
24860;DHT22;12936;52.006;4.350;2023-05-14T06:20:01;14.60;99.90
24860;DHT22;12936;52.006;4.350;2023-05-14T06:22:30;14.60;99.90
24860;DHT22;12936;52.006;4.350;2023-05-14T06:24:58;14.60;99.90
24860;DHT22;12936;52.006;4.350;2023-05-14T06:27:27;14.70;99.90
24860;DHT22;12936;52.006;4.350;2023-05-14T06:29:56;14.70;99.90
24860;DHT22;12936;52.006;4.350;2023-05-14T06:32:24;14.60;99.90
24860;DHT22;12936;52.006;4.350;2023-05-14T06:34:52;14.60;99.90
24860;DHT22;12936;52.006;4.350;2023-05-14T06:37:20;14.70;99.90
24860;DHT22;12936;52.006;4.350;2023-05-14T06:39:48;14.60;99.90
24860;DHT22;12936;52.006;4.350;2023-05-14T06:42:17;14.70;99.90
24860;DHT22;12936;52.006;4.350;2023-05-14T06:44:46;14.70;99.90
24860;DHT22;12936;52.006;4.350;2023-05-14T06:47:15;14.70;99.90
24860;DHT22;12936;52.006;4.350;2023-05-14T06:49:43;14.70;99.90
24860;DHT22;12936;52.006;4.350;2023-05-14T06:52:11;14.70;99.90
24860;DHT22;12936;52.006;4.350;2023-05-14T06:54:39;14.70;99.90
24860;DHT22;12936;52.006;4.350;2023-05-14T06:57:07;14.80;99.90
24860;DHT22;12936;52.006;4.350;2023-05-14T06:59:36;14.80;99.90
24860;DHT22;12936;52.006;4.350;2023-05-14T07:02:08;14.90;99.90
24860;DHT22;12936;52.006;4.350;2023-05-14T07:04:36;14.90;99.90
24860;DHT22;12936;52.006;4.350;2023-05-14T07:07:04;14.90;99.90
24860;DHT22;12936;52.006;4.350;2023-05-14T07:09:32;14.90;99.90
24860;DHT22;12936;52.006;4.350;2023-05-14T07:12:00;15.00;99.90
24860;DHT22;12936;52.006;4.350;2023-05-14T07:14:29;15.00;99.90
24860;DHT22;12936;52.006;4.350;2023-05-14T07:16:57;15.00;99.90
24860;DHT22;12936;52.006;4.350;2023-05-14T07:19:31;15.10;99.90
24860;DHT22;12936;52.006;4.350;2023-05-14T07:21:59;15.10;99.90
24860;DHT22;12936;52.006;4.350;2023-05-14T07:24:27;15.10;99.90
24860;DHT22;12936;52.006;4.350;2023-05-14T07:26:56;15.10;99.90
24860;DHT22;12936;52.006;4.350;2023-05-14T07:29:24;15.10;99.90
24860;DHT22;12936;52.006;4.350;2023-05-14T07:31:52;15.10;99.90
24860;DHT22;12936;52.006;4.350;2023-05-14T07:34:20;15.20;99.90
24860;DHT22;12936;52.006;4.350;2023-05-14T07:36:50;15.20;99.90
24860;DHT22;12936;52.006;4.350;2023-05-14T07:39:18;15.20;99.90
24860;DHT22;12936;52.006;4.350;2023-05-14T07:41:46;15.20;99.90
24860;DHT22;12936;52.006;4.350;2023-05-14T07:44:15;15.20;99.90
24860;DHT22;12936;52.006;4.350;2023-05-14T07:46:46;15.20;99.90
24860;DHT22;12936;52.006;4.350;2023-05-14T07:49:15;15.30;99.90
24860;DHT22;12936;52.006;4.350;2023-05-14T07:51:43;15.30;99.90
24860;DHT22;12936;52.006;4.350;2023-05-14T07:54:12;15.20;99.90
24860;DHT22;12936;52.006;4.350;2023-05-14T07:56:41;15.30;99.90
24860;DHT22;12936;52.006;4.350;2023-05-14T07:59:09;15.30;99.90
24860;DHT22;12936;52.006;4.350;2023-05-14T08:01:37;15.30;99.90
24860;DHT22;12936;52.006;4.350;2023-05-14T08:04:05;15.30;99.90
24860;DHT22;12936;52.006;4.350;2023-05-14T08:06:34;15.40;99.90
24860;DHT22;12936;52.006;4.350;2023-05-14T08:09:02;15.40;99.90
24860;DHT22;12936;52.006;4.350;2023-05-14T08:11:33;15.40;99.90
24860;DHT22;12936;52.006;4.350;2023-05-14T08:14:01;15.40;99.90
24860;DHT22;12936;52.006;4.350;2023-05-14T08:16:29;15.40;99.90
24860;DHT22;12936;52.006;4.350;2023-05-14T08:18:57;15.40;99.90
24860;DHT22;12936;52.006;4.350;2023-05-14T08:21:26;15.40;99.90
24860;DHT22;12936;52.006;4.350;2023-05-14T08:23:54;15.40;99.90
24860;DHT22;12936;52.006;4.350;2023-05-14T08:26:22;15.40;99.90
24860;DHT22;12936;52.006;4.350;2023-05-14T08:28:53;15.50;99.90
24860;DHT22;12936;52.006;4.350;2023-05-14T08:31:22;15.50;99.90
24860;DHT22;12936;52.006;4.350;2023-05-14T08:33:50;15.50;99.90
24860;DHT22;12936;52.006;4.350;2023-05-14T08:36:19;15.50;99.90
24860;DHT22;12936;52.006;4.350;2023-05-14T08:38:47;15.60;99.90
24860;DHT22;12936;52.006;4.350;2023-05-14T08:41:16;15.50;99.90
24860;DHT22;12936;52.006;4.350;2023-05-14T08:43:54;15.60;99.90
24860;DHT22;12936;52.006;4.350;2023-05-14T08:46:26;15.60;99.90
24860;DHT22;12936;52.006;4.350;2023-05-14T08:49:08;15.60;99.90
24860;DHT22;12936;52.006;4.350;2023-05-14T08:51:38;15.60;99.90
24860;DHT22;12936;52.006;4.350;2023-05-14T08:54:06;15.60;99.90
24860;DHT22;12936;52.006;4.350;2023-05-14T08:56:37;15.60;99.90
24860;DHT22;12936;52.006;4.350;2023-05-14T08:59:07;15.70;99.90
24860;DHT22;12936;52.006;4.350;2023-05-14T09:01:36;15.70;99.90
24860;DHT22;12936;52.006;4.350;2023-05-14T09:04:05;15.70;99.90
24860;DHT22;12936;52.006;4.350;2023-05-14T09:06:35;15.80;99.90
24860;DHT22;12936;52.006;4.350;2023-05-14T09:09:04;15.80;99.90
24860;DHT22;12936;52.006;4.350;2023-05-14T09:11:32;15.90;99.90
24860;DHT22;12936;52.006;4.350;2023-05-14T09:14:00;15.90;99.90
24860;DHT22;12936;52.006;4.350;2023-05-14T09:16:30;15.90;99.90
24860;DHT22;12936;52.006;4.350;2023-05-14T09:18:58;15.90;99.90
24860;DHT22;12936;52.006;4.350;2023-05-14T09:21:27;16.00;99.90
24860;DHT22;12936;52.006;4.350;2023-05-14T09:23:58;16.00;99.90
24860;DHT22;12936;52.006;4.350;2023-05-14T09:26:31;16.00;99.90
24860;DHT22;12936;52.006;4.350;2023-05-14T09:29:01;16.00;99.90
24860;DHT22;12936;52.006;4.350;2023-05-14T09:31:33;16.10;99.90
24860;DHT22;12936;52.006;4.350;2023-05-14T09:34:03;16.10;99.90
24860;DHT22;12936;52.006;4.350;2023-05-14T09:36:33;16.10;99.90
24860;DHT22;12936;52.006;4.350;2023-05-14T09:39:03;16.10;99.90
24860;DHT22;12936;52.006;4.350;2023-05-14T09:41:31;16.10;99.90
24860;DHT22;12936;52.006;4.350;2023-05-14T09:43:59;16.10;99.90
24860;DHT22;12936;52.006;4.350;2023-05-14T09:46:32;16.10;99.90
24860;DHT22;12936;52.006;4.350;2023-05-14T09:49:02;16.20;99.90
24860;DHT22;12936;52.006;4.350;2023-05-14T09:51:30;16.20;99.90
24860;DHT22;12936;52.006;4.350;2023-05-14T09:53:59;16.20;99.90
24860;DHT22;12936;52.006;4.350;2023-05-14T09:56:30;16.20;99.90
24860;DHT22;12936;52.006;4.350;2023-05-14T09:58:59;16.20;99.90
24860;DHT22;12936;52.006;4.350;2023-05-14T10:01:29;16.30;99.90
24860;DHT22;12936;52.006;4.350;2023-05-14T10:04:02;16.30;99.90
24860;DHT22;12936;52.006;4.350;2023-05-14T10:06:36;16.30;99.90
24860;DHT22;12936;52.006;4.350;2023-05-14T10:09:09;16.30;99.90
24860;DHT22;12936;52.006;4.350;2023-05-14T10:11:42;16.30;99.90
24860;DHT22;12936;52.006;4.350;2023-05-14T10:14:15;16.40;99.90
24860;DHT22;12936;52.006;4.350;2023-05-14T10:16:47;16.40;99.90
24860;DHT22;12936;52.006;4.350;2023-05-14T10:19:20;16.40;99.90
24860;DHT22;12936;52.006;4.350;2023-05-14T10:21:54;16.50;99.90
24860;DHT22;12936;52.006;4.350;2023-05-14T10:24:23;16.50;99.90
24860;DHT22;12936;52.006;4.350;2023-05-14T10:26:52;16.50;99.90
24860;DHT22;12936;52.006;4.350;2023-05-14T10:29:31;16.60;99.90
24860;DHT22;12936;52.006;4.350;2023-05-14T10:32:03;16.60;99.90
24860;DHT22;12936;52.006;4.350;2023-05-14T10:34:36;16.60;99.90
24860;DHT22;12936;52.006;4.350;2023-05-14T10:37:08;16.70;99.90
24860;DHT22;12936;52.006;4.350;2023-05-14T10:39:41;16.70;99.90
24860;DHT22;12936;52.006;4.350;2023-05-14T10:42:11;16.80;99.90
24860;DHT22;12936;52.006;4.350;2023-05-14T10:44:46;16.80;99.90
24860;DHT22;12936;52.006;4.350;2023-05-14T10:47:14;16.90;99.90
24860;DHT22;12936;52.006;4.350;2023-05-14T10:49:45;17.00;99.90
24860;DHT22;12936;52.006;4.350;2023-05-14T10:52:17;17.10;99.90
24860;DHT22;12936;52.006;4.350;2023-05-14T10:54:50;17.10;99.90
24860;DHT22;12936;52.006;4.350;2023-05-14T10:57:19;17.10;99.90
24860;DHT22;12936;52.006;4.350;2023-05-14T10:59:49;17.20;99.90
24860;DHT22;12936;52.006;4.350;2023-05-14T11:02:21;17.20;99.90
24860;DHT22;12936;52.006;4.350;2023-05-14T11:04:57;17.20;99.90
24860;DHT22;12936;52.006;4.350;2023-05-14T11:07:29;17.20;99.90
24860;DHT22;12936;52.006;4.350;2023-05-14T11:10:03;17.10;99.90
24860;DHT22;12936;52.006;4.350;2023-05-14T11:12:31;17.10;99.90
24860;DHT22;12936;52.006;4.350;2023-05-14T11:15:01;17.20;99.90
24860;DHT22;12936;52.006;4.350;2023-05-14T11:17:30;17.20;99.90
24860;DHT22;12936;52.006;4.350;2023-05-14T11:20:00;17.20;99.90
24860;DHT22;12936;52.006;4.350;2023-05-14T11:22:28;17.20;99.90
24860;DHT22;12936;52.006;4.350;2023-05-14T11:24:59;17.30;99.90
24860;DHT22;12936;52.006;4.350;2023-05-14T11:27:27;17.30;99.90
24860;DHT22;12936;52.006;4.350;2023-05-14T11:29:56;17.30;99.90
24860;DHT22;12936;52.006;4.350;2023-05-14T11:32:27;17.40;99.90
24860;DHT22;12936;52.006;4.350;2023-05-14T11:34:55;17.40;99.90
24860;DHT22;12936;52.006;4.350;2023-05-14T11:37:25;17.50;99.90
24860;DHT22;12936;52.006;4.350;2023-05-14T11:39:54;17.50;99.90
24860;DHT22;12936;52.006;4.350;2023-05-14T11:42:22;17.50;99.90
24860;DHT22;12936;52.006;4.350;2023-05-14T11:44:52;17.60;99.90
24860;DHT22;12936;52.006;4.350;2023-05-14T11:47:21;17.70;99.90
24860;DHT22;12936;52.006;4.350;2023-05-14T11:49:49;17.70;99.90
24860;DHT22;12936;52.006;4.350;2023-05-14T11:52:18;17.80;99.90
24860;DHT22;12936;52.006;4.350;2023-05-14T11:54:49;17.90;99.90
24860;DHT22;12936;52.006;4.350;2023-05-14T11:57:19;18.00;99.90
24860;DHT22;12936;52.006;4.350;2023-05-14T11:59:48;18.00;99.90
24860;DHT22;12936;52.006;4.350;2023-05-14T12:02:21;18.10;99.90
24860;DHT22;12936;52.006;4.350;2023-05-14T12:04:50;18.10;99.90
24860;DHT22;12936;52.006;4.350;2023-05-14T12:07:20;18.20;99.90
24860;DHT22;12936;52.006;4.350;2023-05-14T12:09:50;18.20;99.90
24860;DHT22;12936;52.006;4.350;2023-05-14T12:12:19;18.30;99.90
24860;DHT22;12936;52.006;4.350;2023-05-14T12:14:50;18.40;99.90
24860;DHT22;12936;52.006;4.350;2023-05-14T12:17:20;18.40;99.90
24860;DHT22;12936;52.006;4.350;2023-05-14T12:19:51;18.50;99.90
24860;DHT22;12936;52.006;4.350;2023-05-14T12:22:21;18.60;99.90
24860;DHT22;12936;52.006;4.350;2023-05-14T12:24:55;18.60;99.90
24860;DHT22;12936;52.006;4.350;2023-05-14T12:27:27;18.60;99.90
24860;DHT22;12936;52.006;4.350;2023-05-14T12:29:58;18.70;99.90
24860;DHT22;12936;52.006;4.350;2023-05-14T12:32:46;18.70;99.90
24860;DHT22;12936;52.006;4.350;2023-05-14T12:35:19;18.80;99.90
24860;DHT22;12936;52.006;4.350;2023-05-14T12:37:47;18.70;99.90
24860;DHT22;12936;52.006;4.350;2023-05-14T12:40:37;18.80;99.90
24860;DHT22;12936;52.006;4.350;2023-05-14T12:43:05;18.80;99.90
24860;DHT22;12936;52.006;4.350;2023-05-14T12:45:33;18.70;99.90
24860;DHT22;12936;52.006;4.350;2023-05-14T12:48:01;18.70;99.90
24860;DHT22;12936;52.006;4.350;2023-05-14T12:50:29;18.70;99.90
24860;DHT22;12936;52.006;4.350;2023-05-14T12:52:57;18.70;99.90
24860;DHT22;12936;52.006;4.350;2023-05-14T12:55:25;18.70;99.90
24860;DHT22;12936;52.006;4.350;2023-05-14T12:57:55;18.70;99.90
24860;DHT22;12936;52.006;4.350;2023-05-14T13:00:23;18.70;99.90
24860;DHT22;12936;52.006;4.350;2023-05-14T13:02:52;18.80;99.90
24860;DHT22;12936;52.006;4.350;2023-05-14T13:05:20;18.80;99.90
24860;DHT22;12936;52.006;4.350;2023-05-14T13:07:50;18.70;99.90
24860;DHT22;12936;52.006;4.350;2023-05-14T13:10:18;18.70;99.90
24860;DHT22;12936;52.006;4.350;2023-05-14T13:12:47;18.80;99.90
24860;DHT22;12936;52.006;4.350;2023-05-14T13:15:17;18.70;99.90
24860;DHT22;12936;52.006;4.350;2023-05-14T13:17:45;18.80;99.90
24860;DHT22;12936;52.006;4.350;2023-05-14T13:20:15;18.70;99.90
24860;DHT22;12936;52.006;4.350;2023-05-14T13:22:44;18.70;99.90
24860;DHT22;12936;52.006;4.350;2023-05-14T13:25:12;18.60;99.90
24860;DHT22;12936;52.006;4.350;2023-05-14T13:27:40;18.60;99.90
24860;DHT22;12936;52.006;4.350;2023-05-14T13:30:08;18.40;99.90
24860;DHT22;12936;52.006;4.350;2023-05-14T13:32:39;18.50;99.90
24860;DHT22;12936;52.006;4.350;2023-05-14T13:35:08;18.50;99.90
24860;DHT22;12936;52.006;4.350;2023-05-14T13:37:36;18.50;99.90
24860;DHT22;12936;52.006;4.350;2023-05-14T13:40:07;18.40;99.90
24860;DHT22;12936;52.006;4.350;2023-05-14T13:42:35;18.40;99.90
24860;DHT22;12936;52.006;4.350;2023-05-14T13:45:06;18.40;99.90
24860;DHT22;12936;52.006;4.350;2023-05-14T13:47:34;18.30;99.90
24860;DHT22;12936;52.006;4.350;2023-05-14T13:50:05;18.40;99.90
24860;DHT22;12936;52.006;4.350;2023-05-14T13:52:36;18.40;99.90
24860;DHT22;12936;52.006;4.350;2023-05-14T13:55:06;18.40;99.90
24860;DHT22;12936;52.006;4.350;2023-05-14T13:57:35;18.40;99.90
24860;DHT22;12936;52.006;4.350;2023-05-14T14:00:06;18.50;99.90
24860;DHT22;12936;52.006;4.350;2023-05-14T14:02:35;18.40;99.90
24860;DHT22;12936;52.006;4.350;2023-05-14T14:05:05;18.50;99.90
24860;DHT22;12936;52.006;4.350;2023-05-14T14:07:35;18.60;99.90
24860;DHT22;12936;52.006;4.350;2023-05-14T14:10:07;18.60;99.90
24860;DHT22;12936;52.006;4.350;2023-05-14T14:12:35;18.60;99.90
24860;DHT22;12936;52.006;4.350;2023-05-14T14:15:05;18.60;99.90
24860;DHT22;12936;52.006;4.350;2023-05-14T14:17:34;18.50;99.90
24860;DHT22;12936;52.006;4.350;2023-05-14T14:20:05;18.50;99.90
24860;DHT22;12936;52.006;4.350;2023-05-14T14:22:35;18.40;99.90
24860;DHT22;12936;52.006;4.350;2023-05-14T14:25:05;18.40;99.90
24860;DHT22;12936;52.006;4.350;2023-05-14T14:27:34;18.40;99.90
24860;DHT22;12936;52.006;4.350;2023-05-14T14:30:06;18.30;99.90
24860;DHT22;12936;52.006;4.350;2023-05-14T14:32:42;18.30;99.90
24860;DHT22;12936;52.006;4.350;2023-05-14T14:35:13;18.40;99.90
24860;DHT22;12936;52.006;4.350;2023-05-14T14:37:42;18.40;99.90
24860;DHT22;12936;52.006;4.350;2023-05-14T14:40:18;18.40;99.90
24860;DHT22;12936;52.006;4.350;2023-05-14T14:42:46;18.50;99.90
24860;DHT22;12936;52.006;4.350;2023-05-14T14:45:16;18.40;99.90
24860;DHT22;12936;52.006;4.350;2023-05-14T14:47:45;18.40;99.90
24860;DHT22;12936;52.006;4.350;2023-05-14T14:50:17;18.40;99.90
24860;DHT22;12936;52.006;4.350;2023-05-14T14:52:46;18.40;99.90
24860;DHT22;12936;52.006;4.350;2023-05-14T14:55:14;18.40;99.90
24860;DHT22;12936;52.006;4.350;2023-05-14T14:57:42;18.40;99.90
24860;DHT22;12936;52.006;4.350;2023-05-14T15:00:12;18.40;99.90
24860;DHT22;12936;52.006;4.350;2023-05-14T15:02:40;18.40;99.90
24860;DHT22;12936;52.006;4.350;2023-05-14T15:05:10;18.40;99.90
24860;DHT22;12936;52.006;4.350;2023-05-14T15:07:39;18.50;99.90
24860;DHT22;12936;52.006;4.350;2023-05-14T15:10:08;18.60;99.90
24860;DHT22;12936;52.006;4.350;2023-05-14T15:12:37;18.50;99.90
24860;DHT22;12936;52.006;4.350;2023-05-14T15:15:07;18.60;99.90
24860;DHT22;12936;52.006;4.350;2023-05-14T15:17:36;18.60;99.90
24860;DHT22;12936;52.006;4.350;2023-05-14T15:20:05;18.60;99.90
24860;DHT22;12936;52.006;4.350;2023-05-14T15:22:34;18.70;99.90
24860;DHT22;12936;52.006;4.350;2023-05-14T15:25:05;18.80;99.90
24860;DHT22;12936;52.006;4.350;2023-05-14T15:27:33;18.80;99.90
24860;DHT22;12936;52.006;4.350;2023-05-14T15:30:02;18.90;99.90
24860;DHT22;12936;52.006;4.350;2023-05-14T15:32:30;18.80;99.90
24860;DHT22;12936;52.006;4.350;2023-05-14T15:34:59;18.80;99.90
24860;DHT22;12936;52.006;4.350;2023-05-14T15:37:27;18.80;99.90
24860;DHT22;12936;52.006;4.350;2023-05-14T15:40:06;18.80;99.90
24860;DHT22;12936;52.006;4.350;2023-05-14T15:42:35;18.80;99.90
24860;DHT22;12936;52.006;4.350;2023-05-14T15:45:04;18.80;99.90